Pagina principală
METAR-TAF:

METAR-TAF

Aeroporturi :

Collin County Regional Airport at McKinney

McKinney, Texas, Statele Unite ale Americii

Latitudine: 33-10-40N, longitudine: 096-35-25W, elevație: 178 m

Observații meteo curente

Raportul a fost făcut în urmă cu 38 de minute, la 20:53 UTC
Vânt 6 kt de la Sud cu rafale de până la 16 kt
Temperatură 34°C
Umiditate 41%
Presiune 1015 hPa
Vizibilitate: 16.1 km
Nori puțini la o înălțime de 6000 picior

METAR: KTKI 222053Z 18006G16KT 10SM FEW060 34/19 A2998 RMK AO2 SLP145 T03440194 56021

Ora: 16:31 (21:31 UTC)


TAF: lipsă

Observații și prognoze meteo pentru peste 4.000 de aeroporturi (rapoarte METAR și TAF).

Stațiile disponibile sunt reprezentate pe hartă prin puncte galbene și roșii.

Țineți indicatorul mouse-ului pe punctul dorit pentru a vedea denumirea stației.

Apoi, faceți clic pentru a vedea observațiile și prognozele meteorologice.

Pentru a schimba harta: Pentru mărire, faceți clic pe butoanele verzi cu cruce neagră; pentru micșorare, pe butonul verde cu o liniuță; pentru hărți învecinate, pe săgețile verzi.


METAR-TAF: